createdAt,value
2019-04-04T00:00:20.320Z,20.53
2019-04-04T00:02:47.974Z,19.03
2019-04-04T00:05:16.035Z,24.37
2019-04-04T00:07:43.077Z,20.97
2019-04-04T00:10:11.431Z,21.30
2019-04-04T00:12:38.964Z,21.67
2019-04-04T00:15:06.807Z,22.03
2019-04-04T00:17:33.782Z,23.23
2019-04-04T00:20:00.917Z,23.80
2019-04-04T00:22:28.538Z,25.30
2019-04-04T00:24:55.530Z,22.40
2019-04-04T00:27:22.531Z,21.47
2019-04-04T00:29:49.788Z,26.83
2019-04-04T00:32:16.519Z,21.80
2019-04-04T00:34:43.535Z,22.33
2019-04-04T00:37:10.662Z,20.93
2019-04-04T00:39:38.001Z,17.60
2019-04-04T00:42:06.357Z,15.73
2019-04-04T00:44:33.118Z,13.47
2019-04-04T00:47:01.569Z,14.20
2019-04-04T00:49:28.926Z,13.60
2019-04-04T00:51:55.890Z,15.20
2019-04-04T00:54:22.650Z,15.40
2019-04-04T00:56:49.655Z,15.70
2019-04-04T00:59:16.567Z,22.00
2019-04-04T01:01:43.581Z,21.50
2019-04-04T01:04:10.476Z,22.03
2019-04-04T01:06:37.378Z,20.30
2019-04-04T01:09:05.352Z,22.77
2019-04-04T01:11:32.351Z,20.33
2019-04-04T01:13:59.426Z,20.93
2019-04-04T01:16:26.422Z,20.80
2019-04-04T01:18:53.338Z,20.50
2019-04-04T01:21:22.148Z,22.23
2019-04-04T01:23:49.227Z,20.43
2019-04-04T01:26:16.156Z,19.37
2019-04-04T01:28:43.216Z,19.10
2019-04-04T01:31:10.079Z,23.13
2019-04-04T01:33:36.866Z,21.07
2019-04-04T01:36:03.891Z,21.63
2019-04-04T01:38:30.776Z,20.37
2019-04-04T01:40:57.563Z,21.27
2019-04-04T01:43:24.426Z,20.77
2019-04-04T01:45:51.391Z,24.70
2019-04-04T01:48:18.891Z,24.43
2019-04-04T01:50:46.254Z,25.60
2019-04-04T01:53:12.974Z,25.50
2019-04-04T01:55:39.888Z,24.47
2019-04-04T01:58:07.971Z,26.30
2019-04-04T02:00:35.671Z,28.57
2019-04-04T02:03:02.633Z,29.53
2019-04-04T02:05:29.679Z,28.57
2019-04-04T02:07:56.622Z,28.33
2019-04-04T02:10:23.455Z,26.23
2019-04-04T02:12:50.243Z,32.40
2019-04-04T02:15:17.267Z,29.93
2019-04-04T02:17:44.143Z,30.67
2019-04-04T02:20:11.429Z,30.90
2019-04-04T02:22:38.140Z,31.80
2019-04-04T02:25:05.511Z,35.10
2019-04-04T02:27:32.509Z,34.03
2019-04-04T02:29:59.246Z,31.20
2019-04-04T02:32:27.672Z,34.07
2019-04-04T02:34:54.657Z,34.20
2019-04-04T02:37:22.099Z,36.90
2019-04-04T02:39:49.197Z,36.70
2019-04-04T02:42:16.078Z,33.10
2019-04-04T02:44:42.905Z,38.10
2019-04-04T02:47:09.765Z,36.90
2019-04-04T02:49:36.756Z,35.23
2019-04-04T02:52:03.712Z,34.10
2019-04-04T02:54:30.621Z,33.00
2019-04-04T02:56:57.509Z,35.40
2019-04-04T02:59:24.380Z,34.20
2019-04-04T03:01:51.389Z,35.60
2019-04-04T03:04:18.403Z,36.43
2019-04-04T03:06:45.404Z,38.03
2019-04-04T03:09:12.724Z,34.13
2019-04-04T03:11:39.599Z,38.27
2019-04-04T03:14:06.933Z,42.97
2019-04-04T03:16:33.806Z,40.33
2019-04-04T03:19:00.806Z,40.53
2019-04-04T03:21:27.695Z,42.40
2019-04-04T03:23:54.570Z,46.27
2019-04-04T03:26:21.597Z,42.33
2019-04-04T03:28:48.575Z,39.33
2019-04-04T03:31:15.553Z,41.67
2019-04-04T03:33:42.408Z,41.27
2019-04-04T03:36:09.384Z,44.80
2019-04-04T03:38:36.396Z,40.23
2019-04-04T03:41:03.362Z,41.13
2019-04-04T03:43:30.139Z,45.73
2019-04-04T03:46:00.188Z,45.30
2019-04-04T03:48:25.900Z,45.60
2019-04-04T03:50:56.588Z,48.30
2019-04-04T03:53:22.435Z,49.10
2019-04-04T03:55:49.310Z,45.10
2019-04-04T03:58:16.191Z,45.80
2019-04-04T04:00:43.064Z,46.47
2019-04-04T04:03:09.935Z,48.50
2019-04-04T04:05:40.638Z,42.83
2019-04-04T04:08:05.623Z,43.17
2019-04-04T04:10:33.728Z,42.67
2019-04-04T04:13:01.163Z,44.70
2019-04-04T04:15:30.358Z,44.63
2019-04-04T04:17:56.823Z,44.90
2019-04-04T04:20:23.725Z,43.93
2019-04-04T04:22:51.511Z,44.33
2019-04-04T04:25:18.715Z,46.23
2019-04-04T04:27:48.406Z,43.33
2019-04-04T04:30:14.209Z,42.37
2019-04-04T04:32:41.128Z,44.90
2019-04-04T04:35:09.062Z,45.93
2019-04-04T04:37:38.833Z,56.43
2019-04-04T04:40:06.091Z,51.53
2019-04-04T04:42:33.013Z,56.67
2019-04-04T04:45:00.027Z,55.87
2019-04-04T04:47:27.007Z,56.77
2019-04-04T04:49:55.488Z,58.50
2019-04-04T04:52:22.648Z,62.97
2019-04-04T04:54:49.498Z,61.73
2019-04-04T04:57:28.852Z,63.10
2019-04-04T04:59:45.061Z,66.57
2019-04-04T05:02:12.008Z,61.40
2019-04-04T05:04:38.877Z,64.67
2019-04-04T05:07:07.417Z,60.33
2019-04-04T05:09:34.507Z,56.00
2019-04-04T05:12:01.771Z,57.20
2019-04-04T05:14:29.813Z,55.80
2019-04-04T05:16:57.341Z,53.03
2019-04-04T05:19:24.223Z,58.20
2019-04-04T05:21:51.091Z,57.33
2019-04-04T05:24:18.663Z,52.63
2019-04-04T05:26:45.918Z,58.77
2019-04-04T05:29:13.959Z,53.90
2019-04-04T05:31:41.071Z,57.27
2019-04-04T05:34:07.974Z,65.30
2019-04-04T05:36:36.751Z,60.10
2019-04-04T05:39:06.250Z,57.00
2019-04-04T05:41:33.277Z,54.47
2019-04-04T05:44:00.063Z,55.17
2019-04-04T05:46:27.132Z,57.60
2019-04-04T05:48:54.058Z,61.50
2019-04-04T05:51:21.150Z,58.77
2019-04-04T05:53:48.049Z,53.00
2019-04-04T05:56:15.764Z,55.37
2019-04-04T05:58:42.723Z,55.07
2019-04-04T06:01:11.307Z,52.77
2019-04-04T06:03:38.055Z,51.40
2019-04-04T06:06:05.071Z,52.30
2019-04-04T06:08:32.182Z,53.27
2019-04-04T06:10:59.127Z,51.97
2019-04-04T06:13:27.052Z,46.57
2019-04-04T06:15:54.498Z,43.57
2019-04-04T06:18:21.411Z,41.70
2019-04-04T06:20:48.624Z,39.77
2019-04-04T06:23:15.955Z,34.63
2019-04-04T06:25:42.983Z,33.07
2019-04-04T06:28:11.794Z,31.30
2019-04-04T06:30:43.492Z,31.87
2019-04-04T06:33:07.495Z,31.37
2019-04-04T06:35:34.509Z,27.33
2019-04-04T06:38:01.401Z,27.77
2019-04-04T06:40:30.223Z,28.23
2019-04-04T06:42:57.140Z,26.27
2019-04-04T06:45:23.992Z,27.23
2019-04-04T06:47:50.940Z,24.17
2019-04-04T06:50:17.816Z,24.10
2019-04-04T06:52:44.822Z,23.47
2019-04-04T06:55:11.819Z,24.97
2019-04-04T06:57:38.677Z,24.97
2019-04-04T07:00:07.620Z,25.07
2019-04-04T07:02:34.701Z,27.43
2019-04-04T07:05:01.753Z,21.67
2019-04-04T07:07:28.473Z,19.37
2019-04-04T07:09:55.505Z,20.03
2019-04-04T07:12:28.105Z,20.60
2019-04-04T07:14:51.134Z,15.90
2019-04-04T07:17:17.925Z,14.30
2019-04-04T07:19:46.279Z,15.37
2019-04-04T07:22:13.593Z,14.70
2019-04-04T07:24:40.475Z,14.17
2019-04-04T07:27:07.458Z,15.00
2019-04-04T07:29:34.237Z,14.43
2019-04-04T07:32:01.127Z,15.17
2019-04-04T07:34:27.980Z,17.27
2019-04-04T07:36:54.845Z,18.10
2019-04-04T07:39:21.612Z,17.00
2019-04-04T07:41:48.603Z,17.70
2019-04-04T07:44:15.459Z,17.70
2019-04-04T07:46:45.502Z,19.23
2019-04-04T07:49:11.227Z,15.93
2019-04-04T07:51:38.119Z,16.37
2019-04-04T07:54:05.241Z,17.93
2019-04-04T07:56:33.624Z,18.27
2019-04-04T07:59:00.913Z,19.07
2019-04-04T08:01:27.879Z,20.40
2019-04-04T08:03:54.663Z,23.13
2019-04-04T08:06:21.547Z,19.83
2019-04-04T08:08:48.436Z,19.47
2019-04-04T08:11:15.184Z,19.93
2019-04-04T08:13:42.173Z,23.50
2019-04-04T08:16:09.185Z,20.23
2019-04-04T08:18:36.043Z,20.40
2019-04-04T08:21:05.606Z,18.40
2019-04-04T08:23:31.571Z,14.77
2019-04-04T08:25:58.499Z,16.83
2019-04-04T08:28:25.247Z,14.67
2019-04-04T08:30:51.973Z,16.67
2019-04-04T08:33:18.759Z,11.57
2019-04-04T08:35:45.669Z,12.53
2019-04-04T08:38:12.531Z,11.40
2019-04-04T08:40:39.405Z,10.93
2019-04-04T08:43:06.292Z,11.13
2019-04-04T08:45:33.308Z,12.33
2019-04-04T08:48:00.183Z,10.23
2019-04-04T08:50:27.136Z,10.83
2019-04-04T08:52:53.915Z,10.37
2019-04-04T08:55:20.777Z,10.73
2019-04-04T08:57:47.519Z,10.53
2019-04-04T09:00:14.367Z,8.60
2019-04-04T09:02:41.151Z,9.80
2019-04-04T09:05:12.357Z,11.57
2019-04-04T09:07:36.946Z,8.80
2019-04-04T09:10:05.263Z,10.67
2019-04-04T09:12:32.126Z,9.87
2019-04-04T09:14:59.156Z,9.87
2019-04-04T09:17:26.014Z,10.00
2019-04-04T09:19:52.868Z,8.60
2019-04-04T09:22:19.787Z,9.30
2019-04-04T09:24:46.680Z,7.97
2019-04-04T09:27:13.466Z,8.63
2019-04-04T09:29:40.311Z,6.77
2019-04-04T09:32:07.265Z,6.13
2019-04-04T09:34:34.119Z,5.13
2019-04-04T09:37:00.956Z,6.10
2019-04-04T09:39:27.967Z,4.20
2019-04-04T09:41:54.866Z,4.43
2019-04-04T09:44:21.723Z,4.97
2019-04-04T09:46:48.717Z,4.43
2019-04-04T09:49:15.703Z,4.63
2019-04-04T09:51:42.427Z,5.07
2019-04-04T09:54:09.290Z,5.47
2019-04-04T09:56:36.024Z,4.17
2019-04-04T09:59:03.163Z,4.47
2019-04-04T10:01:30.283Z,4.40
2019-04-04T10:03:57.146Z,5.43
2019-04-04T10:06:24.132Z,3.93
2019-04-04T10:08:51.138Z,4.73
2019-04-04T10:11:18.029Z,3.77
2019-04-04T10:13:45.035Z,3.73
2019-04-04T10:16:12.101Z,3.90
2019-04-04T10:18:38.965Z,3.90
2019-04-04T10:21:11.600Z,5.30
2019-04-04T10:23:34.649Z,3.47
2019-04-04T10:26:01.918Z,3.73
2019-04-04T10:28:28.903Z,3.23
2019-04-04T10:30:55.631Z,2.97
2019-04-04T10:33:22.353Z,5.17
2019-04-04T10:35:49.202Z,3.53
2019-04-04T10:38:15.931Z,3.20
2019-04-04T10:40:42.695Z,4.20
2019-04-04T10:43:09.419Z,3.57
2019-04-04T10:45:36.335Z,3.67
2019-04-04T10:48:03.363Z,3.20
2019-04-04T10:50:30.300Z,6.20
2019-04-04T10:52:57.355Z,3.93
2019-04-04T10:55:24.247Z,3.33
2019-04-04T10:57:51.264Z,6.23
2019-04-04T11:00:19.534Z,3.77
2019-04-04T11:02:46.405Z,3.43
2019-04-04T11:05:13.483Z,3.57
2019-04-04T11:07:40.508Z,4.20
2019-04-04T11:10:08.009Z,3.10
2019-04-04T11:12:35.645Z,4.20
2019-04-04T11:15:03.023Z,6.50
2019-04-04T11:17:29.929Z,4.40
2019-04-04T11:19:56.968Z,3.03
2019-04-04T11:22:23.941Z,3.50
2019-04-04T11:24:50.707Z,2.97
2019-04-04T11:27:17.774Z,3.17
2019-04-04T11:29:44.891Z,3.33
2019-04-04T11:32:11.635Z,3.00
2019-04-04T11:34:38.531Z,3.13
2019-04-04T11:37:05.308Z,2.77
2019-04-04T11:39:32.163Z,2.87
2019-04-04T11:41:59.071Z,4.03
2019-04-04T11:44:25.838Z,5.30
2019-04-04T11:46:52.707Z,2.77
2019-04-04T11:49:19.627Z,3.80
2019-04-04T11:51:46.503Z,2.97
2019-04-04T11:54:13.347Z,3.50
2019-04-04T11:56:40.340Z,3.83
2019-04-04T11:59:08.273Z,3.80
2019-04-04T12:01:37.567Z,3.67
2019-04-04T12:04:04.436Z,4.17
2019-04-04T12:06:31.207Z,3.43
2019-04-04T12:08:57.991Z,3.73
2019-04-04T12:11:24.748Z,3.77
2019-04-04T12:13:51.487Z,3.77
2019-04-04T12:16:19.092Z,3.70
2019-04-04T12:18:45.855Z,5.33
2019-04-04T12:21:12.732Z,6.20
2019-04-04T12:23:39.619Z,111.03
2019-04-04T12:26:06.630Z,36.70
2019-04-04T12:28:33.443Z,7.37
2019-04-04T12:31:00.337Z,4.70
2019-04-04T12:33:27.219Z,2.97
2019-04-04T12:35:54.093Z,2.57
2019-04-04T12:38:20.939Z,2.87
2019-04-04T12:40:47.816Z,2.97
2019-04-04T12:43:14.815Z,2.60
2019-04-04T12:45:42.011Z,5.03
2019-04-04T12:48:09.260Z,4.23
2019-04-04T12:50:36.465Z,2.63
2019-04-04T12:53:03.507Z,2.80
2019-04-04T12:55:30.371Z,3.60
2019-04-04T12:57:57.271Z,3.50
2019-04-04T13:00:24.112Z,2.33
2019-04-04T13:02:51.131Z,2.37
2019-04-04T13:05:18.132Z,3.23
2019-04-04T13:07:45.131Z,3.17
2019-04-04T13:10:12.642Z,3.70
2019-04-04T13:12:39.595Z,3.10
2019-04-04T13:15:07.367Z,3.47
2019-04-04T13:17:34.251Z,2.50
2019-04-04T13:20:01.202Z,4.77
2019-04-04T13:22:28.115Z,5.90
2019-04-04T13:24:55.179Z,3.33
2019-04-04T13:27:21.927Z,4.87
2019-04-04T13:29:48.709Z,4.20
2019-04-04T13:32:15.816Z,3.13
2019-04-04T13:34:42.655Z,3.20
2019-04-04T13:37:09.590Z,3.23
2019-04-04T13:39:36.363Z,3.73
2019-04-04T13:42:03.687Z,2.87
2019-04-04T13:44:30.422Z,2.60
2019-04-04T13:46:57.315Z,3.00
2019-04-04T13:49:24.031Z,3.23
2019-04-04T13:51:53.079Z,4.10
2019-04-04T13:54:19.556Z,4.20
2019-04-04T13:56:46.536Z,4.70
2019-04-04T13:59:13.571Z,3.93
2019-04-04T14:01:42.722Z,2.67
2019-04-04T14:04:09.069Z,2.47
2019-04-04T14:06:35.932Z,2.20
2019-04-04T14:09:05.999Z,2.57
2019-04-04T14:11:32.775Z,3.67
2019-04-04T14:13:59.714Z,2.60
2019-04-04T14:16:26.919Z,3.83
2019-04-04T14:18:53.653Z,2.97
2019-04-04T14:21:20.495Z,2.87
2019-04-04T14:23:47.244Z,4.87
2019-04-04T14:26:14.119Z,2.93
2019-04-04T14:28:40.990Z,3.67
2019-04-04T14:31:07.876Z,3.70
2019-04-04T14:33:34.903Z,5.77
2019-04-04T14:36:01.779Z,3.43
2019-04-04T14:38:28.508Z,5.03
2019-04-04T14:40:55.419Z,4.63
2019-04-04T14:43:22.251Z,4.43
2019-04-04T14:45:49.015Z,4.60
2019-04-04T14:48:16.059Z,5.10
2019-04-04T14:50:42.818Z,4.47
2019-04-04T14:53:09.753Z,3.90
2019-04-04T14:55:36.728Z,3.60
2019-04-04T14:58:03.732Z,3.40
2019-04-04T15:00:30.627Z,5.17
2019-04-04T15:02:57.399Z,5.30
2019-04-04T15:05:24.343Z,4.30
2019-04-04T15:07:51.191Z,4.10
2019-04-04T15:10:18.131Z,4.47
2019-04-04T15:12:45.091Z,3.90
2019-04-04T15:15:12.362Z,3.10
2019-04-04T15:17:39.359Z,4.10
2019-04-04T15:20:06.710Z,3.47
2019-04-04T15:22:33.475Z,3.77
2019-04-04T15:25:00.215Z,5.77
2019-04-04T15:27:27.064Z,5.17
2019-04-04T15:29:54.027Z,3.83
2019-04-04T15:32:21.035Z,5.77
2019-04-04T15:34:47.931Z,4.00
2019-04-04T15:37:14.695Z,3.77
2019-04-04T15:39:41.571Z,4.20
2019-04-04T15:42:08.336Z,3.07
2019-04-04T15:44:35.076Z,3.17
2019-04-04T15:47:01.995Z,3.40
2019-04-04T15:49:28.955Z,3.50
2019-04-04T15:51:55.701Z,3.23
2019-04-04T15:54:22.607Z,3.70
2019-04-04T15:56:49.376Z,3.40
2019-04-04T15:59:16.255Z,3.30
2019-04-04T16:01:43.358Z,4.00
2019-04-04T16:04:10.334Z,4.53
2019-04-04T16:06:37.199Z,4.13
2019-04-04T16:09:05.815Z,3.33
2019-04-04T16:11:32.707Z,4.13
2019-04-04T16:13:59.575Z,4.90
2019-04-04T16:16:26.345Z,3.70
2019-04-04T16:18:53.141Z,3.87
2019-04-04T16:21:20.035Z,3.77
2019-04-04T16:23:47.023Z,3.50
2019-04-04T16:26:13.976Z,6.40
2019-04-04T16:28:40.753Z,5.13
2019-04-04T16:31:07.583Z,3.87
2019-04-04T16:33:34.443Z,3.97
2019-04-04T16:36:05.400Z,4.03
2019-04-04T16:38:32.515Z,3.90
2019-04-04T16:41:00.540Z,4.30
2019-04-04T16:43:27.505Z,4.77
2019-04-04T16:45:55.440Z,4.40
2019-04-04T16:48:22.331Z,5.40
2019-04-04T16:50:49.214Z,3.83
2019-04-04T16:53:16.318Z,4.30
2019-04-04T16:55:43.196Z,4.43
2019-04-04T16:58:10.183Z,4.00
2019-04-04T17:00:37.201Z,4.17
2019-04-04T17:03:04.193Z,3.73
2019-04-04T17:05:31.075Z,3.63
2019-04-04T17:07:57.924Z,3.30
2019-04-04T17:10:24.656Z,3.40
2019-04-04T17:12:51.636Z,3.17
2019-04-04T17:15:18.759Z,3.70
2019-04-04T17:17:45.511Z,2.80
2019-04-04T17:20:12.967Z,3.27
2019-04-04T17:22:39.905Z,5.07
2019-04-04T17:25:06.852Z,3.30
2019-04-04T17:27:33.796Z,4.23
2019-04-04T17:30:00.663Z,3.60
2019-04-04T17:32:27.719Z,2.73
2019-04-04T17:34:54.825Z,3.67
2019-04-04T17:37:21.935Z,4.97
2019-04-04T17:39:48.843Z,3.00
2019-04-04T17:42:28.142Z,4.20
2019-04-04T17:44:44.652Z,4.13
2019-04-04T17:47:11.420Z,3.10
2019-04-04T17:49:38.683Z,3.67
2019-04-04T17:52:05.721Z,3.47
2019-04-04T17:54:32.577Z,3.87
2019-04-04T17:56:59.606Z,7.07
2019-04-04T17:59:26.499Z,5.03
2019-04-04T18:01:53.580Z,3.93
2019-04-04T18:04:20.486Z,5.47
2019-04-04T18:06:47.348Z,3.97
2019-04-04T18:09:14.222Z,4.30
2019-04-04T18:11:41.103Z,5.40
2019-04-04T18:14:08.027Z,4.03
2019-04-04T18:16:34.875Z,4.60
2019-04-04T18:19:01.751Z,4.97
2019-04-04T18:21:28.706Z,4.67
2019-04-04T18:23:55.583Z,4.93
2019-04-04T18:26:22.728Z,6.93
2019-04-04T18:28:49.469Z,6.63
2019-04-04T18:31:16.427Z,5.60
2019-04-04T18:33:49.781Z,4.90
2019-04-04T18:36:16.511Z,8.30
2019-04-04T18:38:43.733Z,8.40
2019-04-04T18:41:11.045Z,7.47
2019-04-04T18:43:37.944Z,7.20
2019-04-04T18:46:04.948Z,5.97
2019-04-04T18:48:32.652Z,6.07
2019-04-04T18:50:59.371Z,5.80
2019-04-04T18:53:26.372Z,7.07
2019-04-04T18:55:53.420Z,6.17
2019-04-04T18:58:20.285Z,6.10
2019-04-04T19:00:47.272Z,6.20
2019-04-04T19:03:14.251Z,8.23
2019-04-04T19:05:41.234Z,9.17
2019-04-04T19:08:08.504Z,6.23
2019-04-04T19:10:35.581Z,7.43
2019-04-04T19:13:05.621Z,6.40
2019-04-04T19:15:31.179Z,6.97
2019-04-04T19:17:58.067Z,9.17
2019-04-04T19:20:44.555Z,6.90
2019-04-04T19:23:11.589Z,7.73
2019-04-04T19:25:38.323Z,7.73
2019-04-04T19:28:05.488Z,7.43
2019-04-04T19:30:32.462Z,6.53
2019-04-04T19:32:59.315Z,6.47
2019-04-04T19:35:26.100Z,6.73
2019-04-04T19:37:59.969Z,6.47
2019-04-04T19:40:22.191Z,6.87
2019-04-04T19:42:49.079Z,7.47
2019-04-04T19:45:16.673Z,8.57
2019-04-04T19:47:43.739Z,9.43
2019-04-04T19:50:11.211Z,6.70
2019-04-04T19:52:38.131Z,6.43
2019-04-04T19:55:05.389Z,8.27
2019-04-04T19:57:32.315Z,7.90
2019-04-04T19:59:59.277Z,6.40
2019-04-04T20:02:26.129Z,6.50
2019-04-04T20:04:53.112Z,6.80
2019-04-04T20:07:19.975Z,7.07
2019-04-04T20:09:46.927Z,6.00
2019-04-04T20:12:13.803Z,6.43
2019-04-04T20:14:40.795Z,7.10
2019-04-04T20:17:07.664Z,7.43
2019-04-04T20:19:34.407Z,7.33
2019-04-04T20:22:01.262Z,7.47
2019-04-04T20:24:28.940Z,6.70
2019-04-04T20:26:55.824Z,6.60
2019-04-04T20:29:22.684Z,7.93
2019-04-04T20:31:49.590Z,6.27
2019-04-04T20:34:16.567Z,7.03
2019-04-04T20:36:43.560Z,7.50
2019-04-04T20:39:10.542Z,8.63
2019-04-04T20:41:37.896Z,7.10
2019-04-04T20:44:04.980Z,6.37
2019-04-04T20:46:31.859Z,7.33
2019-04-04T20:48:58.732Z,7.77
2019-04-04T20:51:25.630Z,8.47
2019-04-04T20:53:52.887Z,7.63
2019-04-04T20:56:19.669Z,9.50
2019-04-04T20:58:46.559Z,7.90
2019-04-04T21:01:13.261Z,8.73
2019-04-04T21:03:40.005Z,8.47
2019-04-04T21:06:07.030Z,9.33
2019-04-04T21:08:36.639Z,9.20
2019-04-04T21:11:03.475Z,8.50
2019-04-04T21:13:30.243Z,9.70
2019-04-04T21:15:57.004Z,10.47
2019-04-04T21:18:23.969Z,8.60
2019-04-04T21:20:50.964Z,8.63
2019-04-04T21:23:17.941Z,11.37
2019-04-04T21:25:44.860Z,8.43
2019-04-04T21:28:11.736Z,7.27
2019-04-04T21:30:38.723Z,7.97
2019-04-04T21:33:05.483Z,7.43
2019-04-04T21:35:32.336Z,7.20
2019-04-04T21:37:59.072Z,6.63
2019-04-04T21:40:25.910Z,8.13
2019-04-04T21:42:54.114Z,7.50
2019-04-04T21:45:21.074Z,6.60
2019-04-04T21:47:48.045Z,6.50
2019-04-04T21:50:15.046Z,6.17
2019-04-04T21:52:41.832Z,5.93
2019-04-04T21:55:09.660Z,6.17
2019-04-04T21:57:36.510Z,6.00
2019-04-04T22:00:05.658Z,5.90
2019-04-04T22:02:32.963Z,6.03
2019-04-04T22:04:59.957Z,6.10
2019-04-04T22:07:26.709Z,6.40
2019-04-04T22:09:54.091Z,5.50
2019-04-04T22:12:20.887Z,7.10
2019-04-04T22:14:47.604Z,6.33
2019-04-04T22:17:14.451Z,8.33
2019-04-04T22:19:41.277Z,7.27
2019-04-04T22:22:08.267Z,6.83
2019-04-04T22:24:35.191Z,6.20
2019-04-04T22:27:01.952Z,5.37
2019-04-04T22:29:29.223Z,6.17
2019-04-04T22:31:56.139Z,6.37
2019-04-04T22:34:23.036Z,5.00
2019-04-04T22:36:50.040Z,5.43
2019-04-04T22:39:16.893Z,6.40
2019-04-04T22:41:43.760Z,8.43
2019-04-04T22:44:10.609Z,7.13
2019-04-04T22:46:37.639Z,8.43
2019-04-04T22:49:04.475Z,8.03
2019-04-04T22:51:31.370Z,7.47
2019-04-04T22:53:58.243Z,9.03
2019-04-04T22:56:25.086Z,10.80
2019-04-04T22:58:52.004Z,9.13
2019-04-04T23:01:18.773Z,11.07
2019-04-04T23:03:45.656Z,8.87
2019-04-04T23:06:12.551Z,8.60
2019-04-04T23:08:39.441Z,8.77
2019-04-04T23:11:06.271Z,7.90
2019-04-04T23:13:33.073Z,8.03
2019-04-04T23:15:59.927Z,7.93
2019-04-04T23:18:26.787Z,8.37
2019-04-04T23:20:53.764Z,8.77
2019-04-04T23:23:20.634Z,8.80
2019-04-04T23:25:47.524Z,10.33
2019-04-04T23:28:14.523Z,9.23
2019-04-04T23:30:41.256Z,9.83
2019-04-04T23:33:08.016Z,9.23
2019-04-04T23:35:34.959Z,8.77
2019-04-04T23:38:01.770Z,8.77
2019-04-04T23:40:28.603Z,9.83
2019-04-04T23:42:55.342Z,8.53
2019-04-04T23:45:22.239Z,7.33
2019-04-04T23:47:48.986Z,8.63
2019-04-04T23:50:15.868Z,8.03
2019-04-04T23:52:42.854Z,8.97
2019-04-04T23:55:09.956Z,7.27
2019-04-04T23:57:36.807Z,7.90
